Marjatis — FAB7093 — position and weather

sailwx.info

Track history (hours):
 
Tides and Currents Weather Stations Pressure Air Temp Water Temp Dewpoint Dewpoint Depression Visibility Wind Speed Wind Dir Waves Ship Positions

Marjatis

Last reported at 2017-Sep-09 14:33 UTC. Time now 2017-Sep-26 02:16 UTC.
Position N 47°53' W 004°07'.
Warning: this ship's position is 16 days out of date.

Length 14 m.

Type: Sailing vessel. MMSI: 227229850.

Date/timePositionNaut miles runAvg speedWind from/ knotsBaromVisibWave heightAir tempDewpointWater temp
2017-Sep-09 14:33N 47°53' W 004°07'  
2017-Sep-03 02:38N 47°53' W 004°07'0 0.0
2017-Sep-03 01:53N 47°53' W 004°07'0 0.0
2017-Sep-03 00:38N 47°53' W 004°07'0 0.0
2017-Sep-02 23:53N 47°53' W 004°07'0 0.0
2017-Sep-02 22:38N 47°53' W 004°07'0 0.0
2017-Sep-02 21:53N 47°53' W 004°07'0 0.0
2017-Sep-02 20:38N 47°53' W 004°07'0 0.0
2017-Sep-02 16:58N 47°53' W 004°07'0 0.0
2017-Sep-02 14:43N 47°53' W 004°07'0 0.0
2017-Sep-02 13:43N 47°53' W 004°07'0 0.0
2017-Sep-02 12:33N 47°53' W 004°07'4 5.5
2017-Sep-02 11:53N 47°50' W 004°04'2 6.6
2017-Sep-02 11:30N 47°48' W 004°02'3 6.1
2017-Sep-02 10:59N 47°45' W 003°60'2 0.5
2017-Sep-02 07:43N 47°43' W 003°60'0 0.0
2017-Sep-02 03:34N 47°43' W 003°60'0 0.0
2017-Sep-02 02:21N 47°43' W 003°60'0 0.0
2017-Sep-02 02:00N 47°43' W 003°60'0 0.0
2017-Sep-02 01:27N 47°43' W 003°60'0 0.0
2017-Sep-02 00:54N 47°43' W 003°60'0 0.0
2017-Sep-01 22:43N 47°43' W 003°60'11 1.0
2017-Sep-01 11:53N 47°53' W 004°07'0 0.0
2017-Sep-01 09:53N 47°53' W 004°07'2 1.5
2017-Sep-01 08:53N 47°51' W 004°06'  
Track history (hours):
 
Tides and Currents Weather Stations Pressure Air Temp Water Temp Dewpoint Dewpoint Depression Visibility Wind Speed Wind Dir Waves Ship Positions

Marjatis

Last reported at 2017-Sep-09 14:33 UTC. Time now 2017-Sep-26 02:16 UTC.
Position N 47°53' W 004°07'.
Warning: this ship's position is 16 days out of date.

Length 14 m.

Type: Sailing vessel. MMSI: 227229850.

Date/timePositionNaut miles runAvg speedWind from/ knotsBaromVisibWave heightAir tempDewpointWater temp
2017-Sep-09 14:33N 47°53' W 004°07'  
2017-Sep-03 02:38N 47°53' W 004°07'0 0.0
2017-Sep-03 01:53N 47°53' W 004°07'0 0.0
2017-Sep-03 00:38N 47°53' W 004°07'0 0.0
2017-Sep-02 23:53N 47°53' W 004°07'0 0.0
2017-Sep-02 22:38N 47°53' W 004°07'0 0.0
2017-Sep-02 21:53N 47°53' W 004°07'0 0.0
2017-Sep-02 20:38N 47°53' W 004°07'0 0.0
2017-Sep-02 16:58N 47°53' W 004°07'0 0.0
2017-Sep-02 14:43N 47°53' W 004°07'0 0.0
2017-Sep-02 13:43N 47°53' W 004°07'0 0.0
2017-Sep-02 12:33N 47°53' W 004°07'4 5.5
2017-Sep-02 11:53N 47°50' W 004°04'2 6.6
2017-Sep-02 11:30N 47°48' W 004°02'3 6.1
2017-Sep-02 10:59N 47°45' W 003°60'2 0.5
2017-Sep-02 07:43N 47°43' W 003°60'0 0.0
2017-Sep-02 03:34N 47°43' W 003°60'0 0.0
2017-Sep-02 02:21N 47°43' W 003°60'0 0.0
2017-Sep-02 02:00N 47°43' W 003°60'0 0.0
2017-Sep-02 01:27N 47°43' W 003°60'0 0.0
2017-Sep-02 00:54N 47°43' W 003°60'0 0.0
2017-Sep-01 22:43N 47°43' W 003°60'11 1.0
2017-Sep-01 11:53N 47°53' W 004°07'0 0.0
2017-Sep-01 09:53N 47°53' W 004°07'2 1.5
2017-Sep-01 08:53N 47°51' W 004°06'  

Dump ship's entire track history